Terminal Aerodrome Forecast
Issued by NWS Twin Cities, MN

Home | Current Version | Previous Version | Graphics & Text | Print | Product List | Glossary On
Versions: 1 2 3 4 5 6 7 8 9 10 11 12 13 14 15 16 17 18
000
FTUS43 KMPX 270155 AAB
TAFSTC
TAF AMD
KSTC 270155Z 2702/2724 VRB02KT P6SM OVC025
     FM270600 VRB03KT 6SM BR OVC018
     FM271500 03003KT P6SM SCT030 OVC100
     FM272000 02006KT P6SM BKN250=

USA.gov is the U.S. government's official web portal to all federal, state and local government web resources and services.